OJAI/AMM METAR and TAF weather

Enter ICAO airport designator
Station Type Date Time Source
OJAI METAR 2020/09/26 21:00 UTC NOAA

OJAI 262100Z 00000KT 6000 NSC 19/14 Q1015 NOSIG


Station Type Date Time Source
OJAI Decoded METAR 2020/09/26 21:00 UTC NOAA

Queen Alia Airport, Jordan (OJAI) 31-40N 035-58E
Sep 26, 2020 - 05:00 PM EDT / 2020.09.26 2100 UTC
Wind: Calm:0
Visibility: 3 mile(s):0
Temperature: 66 F (19 C)
Dew Point: 57 F (14 C)
Relative Humidity: 72%
Pressure (altimeter): 29.97 in. Hg (1015 hPa)
ob: OJAI 262100Z 00000KT 6000 NSC 19/14 Q1015 NOSIG
cycle: 21

Station Type Date Time Source
OJAI TAF 2020/09/26 18:15 UTC NOAA

TAF TAF OJAI 261614Z 2618/2724 31010KT 7000 SCT030 PROB40 2702/2706 VRB02KT 2000 BR
BECMG 2707/2709 06010KT 5000 HZ FEW035

Example: see airport list